Airfield :
LOGIN :

Register | Disclaimer

   EN    FR    IT 

 










Legend :    VFR   Marginal VFR   IFR   Intensive IFR   Very Intensive IFR
Visi :
Ceiling :
>= 8 km
>= 3000ft
5 to 8 km
1000 to 3000 ft
1500m to 5 km
500 to 1000 ft
800 to 1500m
200 to 500 ft
< 800m
< 200 ft
Symbols :   Thunderstorms  Fog  Heavy snow  Heavy precipitations  Wind > 20 kt
SIGMETs :     Misc.  Thunderstorms  Icing  Turbulence  Mountain Waves  Volcanic Ashes






- Airport Elevation : 393 ft
- IATA code : TYF


ESST - Torsby

CURRENT METAR :
  • 250520Z AUTO VRB01KT 9999 SCT006/// OVC059/// 15/14 Q1022

EXPIRED METARs :
  • 250450Z AUTO VRB03KT 8000 SCT004/// BKN026/// BKN055/// 14/13 Q1022
  • 250420Z AUTO 00000KT 6000 SCT004/// BKN007/// OVC039/// 13/12 Q1022
  • 250350Z AUTO 00000KT 2600 BCFG FEW003/// SCT004/// BKN055/// 12/12 Q1022
  • 250320Z AUTO 00000KT 0200 R16/0500N R34/0500N FG BKN002/// BKN005/// 12/12 Q1022
  • 250250Z AUTO 00000KT 0150 R16/0800N R34/0400N FG OVC002/// 12/12 Q1022
  • 250220Z AUTO VRB01KT 0150 R16/1100D R34/0600N FG OVC002/// 12/12 Q1021
  • 250150Z AUTO 31003KT 0100 R16/0200N R34/0225N FG BKN002/// OVC066/// 11/11 Q1021
  • 250120Z AUTO 00000KT 0200 R16/1500D R34/0900N FG SCT062/// 12/11 Q1022
  • 250050Z AUTO 00000KT 0150 R16/0900N R34/0650N FG FEW033/// BKN051/// 13/12 Q1021

TAF N/A



MET'MAP, your aeronautical weather chart ! - Copyright ORBIFLY December 2007 - Disclaimer

ORBIFLY MET'MAP TEAM :

Programming & Development : Alexandra Zaïnal
Original concept : Baudouin d'Aumeries
Technical & hardware support : Manuel Goepfert
Assistance : Marc-Olivier Méhu




SOURCES & CREDITS :

   NOAA